METAR Data
IDs: Format: Raw Decoded Include TAF

Data at: 0509 UTC 18 Oct 2018

METAR for:KVES (Versailles/Darke Cnt, OH, US)
Text:KVES 180455Z AUTO 00000KT 10SM CLR 01/00 A3046 RMK AO2
Temperature: 1.0°C ( 34°F)
Dewpoint: 0.0°C ( 32°F) [RH = 93%]
Pressure (altimeter):30.46 inches Hg (1031.6 mb)
Winds:calm
Visibility:10 or more sm (16+ km)
Ceiling:at least 12,000 feet AGL
Clouds:sky clear below 12,000 feet AGL
QC Flag:automated observation with no human augmentation